Time,TemperatureF,DewpointF,PressureIn,WindDirection,WindDirectionDegrees,WindSpeedMPH,WindSpeedGustMPH,Humidity,HourlyPrecipIn,Conditions,Clouds,dailyrainin,SoftwareType,DateUTC
2013-05-26 00:01:00,44.8,40.0,30.16,WSW,238,0.0,0.0,83,0.00,,,0.00,Wunderground v.1.15,2013-05-25 23:01:00,
2013-05-26 00:06:00,44.7,39.9,30.16,WSW,245,0.0,0.0,83,0.00,,,0.00,Wunderground v.1.15,2013-05-25 23:06:00,
2013-05-26 00:16:00,44.3,40.1,30.16,WSW,245,0.0,0.0,85,0.00,,,0.00,Wunderground v.1.15,2013-05-25 23:16:00,
2013-05-26 00:26:00,44.1,39.9,30.16,WSW,245,0.0,1.0,85,0.00,,,0.00,Wunderground v.1.15,2013-05-25 23:26:00,
2013-05-26 00:36:00,43.8,39.9,30.16,WNW,295,1.0,1.0,86,0.00,,,0.00,Wunderground v.1.15,2013-05-25 23:36:00,
2013-05-26 00:46:00,43.7,39.5,30.16,West,280,2.0,2.0,85,0.00,,,0.00,Wunderground v.1.15,2013-05-25 23:46:00,
2013-05-26 00:56:00,44.0,39.8,30.16,West,268,1.0,6.0,85,0.00,,,0.00,Wunderground v.1.15,2013-05-25 23:56:00,
2013-05-26 01:01:00,44.1,39.6,30.16,West,259,1.0,1.0,84,0.00,,,0.00,Wunderground v.1.15,2013-05-26 00:01:00,
2013-05-26 01:11:00,44.2,39.7,30.15,West,268,1.0,1.0,84,0.00,,,0.00,Wunderground v.1.15,2013-05-26 00:11:00,
2013-05-26 01:16:00,44.2,39.7,30.15,West,271,1.0,1.0,84,0.00,,,0.00,Wunderground v.1.15,2013-05-26 00:16:00,
2013-05-26 01:26:00,44.2,39.7,30.15,West,279,2.0,4.0,84,0.00,,,0.00,Wunderground v.1.15,2013-05-26 00:26:00,
2013-05-26 01:36:00,44.3,39.8,30.15,SW,231,1.0,1.0,84,0.00,,,0.00,Wunderground v.1.15,2013-05-26 00:36:00,
2013-05-26 01:51:00,44.4,39.9,30.15,WSW,255,1.0,1.0,84,0.00,,,0.00,Wunderground v.1.15,2013-05-26 00:51:00,
2013-05-26 01:56:00,44.4,39.9,30.15,WSW,255,1.0,1.0,84,0.00,,,0.00,Wunderground v.1.15,2013-05-26 00:56:00,
2013-05-26 02:01:00,44.3,39.8,30.15,WNW,297,0.0,0.0,84,0.00,,,0.00,Wunderground v.1.15,2013-05-26 01:01:00,
2013-05-26 02:11:00,44.2,39.7,30.15,WNW,297,0.0,1.0,84,0.00,,,0.00,Wunderground v.1.15,2013-05-26 01:11:00,
2013-05-26 02:21:00,44.2,39.7,30.15,WNW,302,1.0,2.0,84,0.00,,,0.00,Wunderground v.1.15,2013-05-26 01:21:00,
2013-05-26 02:31:00,44.1,39.6,30.14,West,279,1.0,1.0,84,0.00,,,0.00,Wunderground v.1.15,2013-05-26 01:31:00,
2013-05-26 02:36:00,44.0,39.5,30.14,West,275,1.0,1.0,84,0.00,,,0.00,Wunderground v.1.15,2013-05-26 01:36:00,
2013-05-26 02:46:00,44.0,39.5,30.14,West,280,1.0,1.0,84,0.00,,,0.00,Wunderground v.1.15,2013-05-26 01:46:00,
2013-05-26 02:56:00,44.0,39.5,30.14,WNW,287,1.0,1.0,84,0.00,,,0.00,Wunderground v.1.15,2013-05-26 01:56:00,
2013-05-26 03:06:00,43.9,39.4,30.14,WNW,291,1.0,1.0,84,0.00,,,0.00,Wunderground v.1.15,2013-05-26 02:06:00,
2013-05-26 03:16:00,43.6,39.1,30.14,WNW,291,0.0,2.0,84,0.00,,,0.00,Wunderground v.1.15,2013-05-26 02:16:00,
2013-05-26 03:26:00,43.3,39.1,30.14,NW,318,0.0,2.0,85,0.00,,,0.00,Wunderground v.1.15,2013-05-26 02:26:00,
2013-05-26 03:36:00,43.0,39.1,30.14,NW,311,0.0,0.0,86,0.00,,,0.00,Wunderground v.1.15,2013-05-26 02:36:00,
2013-05-26 03:46:00,42.7,38.8,30.14,West,270,0.0,1.0,86,0.00,,,0.00,Wunderground v.1.15,2013-05-26 02:46:00,
2013-05-26 03:56:00,42.4,38.8,30.14,WSW,249,0.0,2.0,87,0.00,,,0.00,Wunderground v.1.15,2013-05-26 02:56:00,
2013-05-26 04:06:00,42.2,38.6,30.14,WSW,249,0.0,0.0,87,0.00,,,0.00,Wunderground v.1.15,2013-05-26 03:06:00,
2013-05-26 04:16:00,42.0,38.7,30.14,WSW,250,0.0,1.0,88,0.00,,,0.00,Wunderground v.1.15,2013-05-26 03:16:00,
2013-05-26 04:21:00,41.9,38.6,30.14,WSW,250,0.0,0.0,88,0.00,,,0.00,Wunderground v.1.15,2013-05-26 03:21:00,
2013-05-26 04:31:00,41.7,38.4,30.14,West,269,0.0,0.0,88,0.00,,,0.00,Wunderground v.1.15,2013-05-26 03:31:00,
2013-05-26 04:41:00,41.5,38.2,30.14,West,274,0.0,0.0,88,0.00,,,0.00,Wunderground v.1.15,2013-05-26 03:41:00,
2013-05-26 04:51:00,41.4,38.4,30.14,WNW,283,0.0,0.0,89,0.00,,,0.00,Wunderground v.1.15,2013-05-26 03:51:00,
2013-05-26 04:56:00,41.4,38.4,30.14,West,262,0.0,0.0,89,0.00,,,0.00,Wunderground v.1.15,2013-05-26 03:56:00,
2013-05-26 05:01:00,41.4,38.4,30.14,West,264,0.0,0.0,89,0.00,,,0.00,Wunderground v.1.15,2013-05-26 04:01:00,
2013-05-26 05:06:00,41.4,38.4,30.14,WSW,256,0.0,0.0,89,0.00,,,0.00,Wunderground v.1.15,2013-05-26 04:06:00,
2013-05-26 05:11:00,41.4,38.4,30.15,WSW,256,0.0,0.0,89,0.00,,,0.00,Wunderground v.1.15,2013-05-26 04:11:00,
2013-05-26 05:16:00,41.3,38.3,30.15,WSW,256,0.0,0.0,89,0.00,,,0.00,Wunderground v.1.15,2013-05-26 04:16:00,
2013-05-26 05:26:00,41.0,37.7,30.15,WSW,256,0.0,0.0,88,0.00,,,0.00,Wunderground v.1.15,2013-05-26 04:26:00,
2013-05-26 05:36:00,40.6,37.3,30.15,WSW,256,0.0,0.0,88,0.00,,,0.00,Wunderground v.1.15,2013-05-26 04:36:00,
2013-05-26 05:46:00,40.3,37.3,30.15,WSW,256,0.0,0.0,89,0.00,,,0.00,Wunderground v.1.15,2013-05-26 04:46:00,
2013-05-26 05:51:00,40.2,37.2,30.15,WSW,256,0.0,0.0,89,0.00,,,0.00,Wunderground v.1.15,2013-05-26 04:51:00,
2013-05-26 06:01:00,40.2,37.5,30.15,WSW,255,0.0,0.0,90,0.00,,,0.00,Wunderground v.1.15,2013-05-26 05:01:00,
2013-05-26 06:06:00,40.2,37.5,30.15,WSW,255,0.0,0.0,90,0.00,,,0.00,Wunderground v.1.15,2013-05-26 05:06:00,
2013-05-26 06:11:00,40.2,37.5,30.15,WSW,255,0.0,0.0,90,0.00,,,0.00,Wunderground v.1.15,2013-05-26 05:11:00,
2013-05-26 06:16:00,40.2,37.5,30.15,WSW,255,0.0,0.0,90,0.00,,,0.00,Wunderground v.1.15,2013-05-26 05:16:00,
2013-05-26 06:21:00,40.3,37.6,30.15,WSW,255,0.0,0.0,90,0.00,,,0.00,Wunderground v.1.15,2013-05-26 05:21:00,
2013-05-26 06:31:00,40.4,37.7,30.15,WSW,255,0.0,0.0,90,0.00,,,0.00,Wunderground v.1.15,2013-05-26 05:31:00,
2013-05-26 06:41:00,40.7,38.3,30.15,WSW,255,0.0,0.0,91,0.00,,,0.00,Wunderground v.1.15,2013-05-26 05:41:00,
2013-05-26 06:51:00,40.9,38.5,30.15,WSW,255,0.0,0.0,91,0.00,,,0.00,Wunderground v.1.15,2013-05-26 05:51:00,
2013-05-26 06:56:00,41.3,38.9,30.15,WSW,240,0.0,0.0,91,0.00,,,0.00,Wunderground v.1.15,2013-05-26 05:56:00,
2013-05-26 07:06:00,42.0,39.6,30.15,WSW,240,0.0,0.0,91,0.00,,,0.00,Wunderground v.1.15,2013-05-26 06:06:00,
2013-05-26 07:11:00,42.5,39.8,30.15,WSW,240,0.0,0.0,90,0.00,,,0.00,Wunderground v.1.15,2013-05-26 06:11:00,
2013-05-26 07:21:00,43.7,39.8,30.15,WSW,240,0.0,1.0,86,0.00,,,0.00,Wunderground v.1.15,2013-05-26 06:21:00,
2013-05-26 07:31:00,46.0,40.8,30.15,WSW,242,0.0,0.0,82,0.00,,,0.00,Wunderground v.1.15,2013-05-26 06:31:00,
2013-05-26 07:41:00,48.5,41.3,30.15,NW,307,0.0,0.0,76,0.00,,,0.00,Wunderground v.1.15,2013-05-26 06:41:00,
2013-05-26 07:51:00,50.1,40.7,30.15,NW,307,1.0,1.0,70,0.00,,,0.00,Wunderground v.1.15,2013-05-26 06:51:00,
2013-05-26 08:01:00,51.0,40.8,30.15,WNW,298,0.0,0.0,68,0.00,,,0.00,Wunderground v.1.15,2013-05-26 07:01:00,
2013-05-26 08:06:00,51.4,40.8,30.15,WNW,301,0.0,1.0,67,0.00,,,0.00,Wunderground v.1.15,2013-05-26 07:06:00,
2013-05-26 08:16:00,52.1,40.3,30.15,West,278,1.0,1.0,64,0.00,,,0.00,Wunderground v.1.15,2013-05-26 07:16:00,
2013-05-26 08:26:00,52.7,40.5,30.15,South,175,1.0,1.0,63,0.00,,,0.00,Wunderground v.1.15,2013-05-26 07:26:00,
2013-05-26 08:31:00,53.2,40.5,30.15,WNW,288,1.0,1.0,62,0.00,,,0.00,Wunderground v.1.15,2013-05-26 07:31:00,
2013-05-26 08:41:00,53.7,39.7,30.14,NW,315,1.0,2.0,59,0.00,,,0.00,Wunderground v.1.15,2013-05-26 07:41:00,
2013-05-26 08:51:00,54.2,40.2,30.14,WNW,284,1.0,1.0,59,0.00,,,0.00,Wunderground v.1.15,2013-05-26 07:51:00,
2013-05-26 09:01:00,54.9,40.4,30.14,NNE,13,1.0,1.0,58,0.00,,,0.00,Wunderground v.1.15,2013-05-26 08:01:00,
2013-05-26 09:11:00,55.7,40.7,30.14,NE,51,1.0,1.0,57,0.00,,,0.00,Wunderground v.1.15,2013-05-26 08:11:00,
2013-05-26 09:21:00,56.4,40.4,30.14,NNW,333,0.0,1.0,55,0.00,,,0.00,Wunderground v.1.15,2013-05-26 08:21:00,
2013-05-26 09:31:00,57.3,39.8,30.14,NW,313,1.0,2.0,52,0.00,,,0.00,Wunderground v.1.15,2013-05-26 08:31:00,
2013-05-26 09:41:00,58.0,40.5,30.14,SW,218,1.0,3.0,52,0.00,,,0.00,Wunderground v.1.15,2013-05-26 08:41:00,
2013-05-26 09:46:00,58.2,40.6,30.14,SSW,208,1.0,3.0,52,0.00,,,0.00,Wunderground v.1.15,2013-05-26 08:46:00,
2013-05-26 09:56:00,58.9,42.3,30.14,NNW,346,1.0,2.0,54,0.00,,,0.00,Wunderground v.1.15,2013-05-26 08:56:00,
2013-05-26 10:06:00,59.3,41.7,30.13,WNW,284,1.0,3.0,52,0.00,,,0.00,Wunderground v.1.15,2013-05-26 09:06:00,
2013-05-26 10:16:00,59.5,41.9,30.13,NNW,344,1.0,1.0,52,0.00,,,0.00,Wunderground v.1.15,2013-05-26 09:16:00,
2013-05-26 10:26:00,60.0,43.8,30.13,NE,37,1.0,1.0,55,0.00,,,0.00,Wunderground v.1.15,2013-05-26 09:26:00,
2013-05-26 10:36:00,60.6,42.4,30.13,WNW,298,1.0,1.0,51,0.00,,,0.00,Wunderground v.1.15,2013-05-26 09:36:00,
2013-05-26 10:46:00,61.3,42.5,30.13,SE,127,1.0,2.0,50,0.00,,,0.00,Wunderground v.1.15,2013-05-26 09:46:00,
2013-05-26 10:56:00,61.6,42.2,30.13,NNE,25,1.0,1.0,49,0.00,,,0.00,Wunderground v.1.15,2013-05-26 09:56:00,
2013-05-26 11:06:00,61.9,42.0,30.12,SW,222,2.0,2.0,48,0.00,,,0.00,Wunderground v.1.15,2013-05-26 10:06:00,
2013-05-26 11:16:00,61.9,40.9,30.13,NW,315,2.0,2.0,46,0.00,,,0.00,Wunderground v.1.15,2013-05-26 10:16:00,
2013-05-26 11:21:00,61.8,40.8,30.12,WSW,250,2.0,2.0,46,0.00,,,0.00,Wunderground v.1.15,2013-05-26 10:21:00,
2013-05-26 11:31:00,62.1,41.6,30.12,North,351,1.0,1.0,47,0.00,,,0.00,Wunderground v.1.15,2013-05-26 10:31:00,
2013-05-26 11:36:00,62.3,42.3,30.12,North,5,1.0,2.0,48,0.00,,,0.00,Wunderground v.1.15,2013-05-26 10:36:00,
2013-05-26 11:46:00,62.7,42.2,30.12,WNW,302,2.0,2.0,47,0.00,,,0.00,Wunderground v.1.15,2013-05-26 10:46:00,
2013-05-26 11:56:00,63.1,43.1,30.12,NNW,329,1.0,3.0,48,0.00,,,0.00,Wunderground v.1.15,2013-05-26 10:56:00,
2013-05-26 12:01:00,63.7,41.9,30.12,WSW,253,1.0,1.0,45,0.00,,,0.00,Wunderground v.1.15,2013-05-26 11:01:00,
2013-05-26 12:06:00,63.9,41.0,30.11,West,275,1.0,1.0,43,0.00,,,0.00,Wunderground v.1.15,2013-05-26 11:06:00,
2013-05-26 12:16:00,64.4,42.0,30.11,NW,304,1.0,1.0,44,0.00,,,0.00,Wunderground v.1.15,2013-05-26 11:16:00,
2013-05-26 12:26:00,64.4,42.6,30.11,South,173,1.0,1.0,45,0.00,,,0.00,Wunderground v.1.15,2013-05-26 11:26:00,
2013-05-26 12:31:00,64.4,42.0,30.11,West,275,2.0,3.0,44,0.00,,,0.00,Wunderground v.1.15,2013-05-26 11:31:00,
2013-05-26 12:36:00,64.7,42.3,30.11,West,265,3.0,3.0,44,0.00,,,0.00,Wunderground v.1.15,2013-05-26 11:36:00,
2013-05-26 12:41:00,65.0,41.9,30.11,SSW,211,4.0,4.0,43,0.00,,,0.00,Wunderground v.1.15,2013-05-26 11:41:00,
2013-05-26 12:51:00,65.1,41.4,30.11,WNW,302,3.0,3.0,42,0.00,,,0.00,Wunderground v.1.15,2013-05-26 11:51:00,
2013-05-26 13:01:00,65.6,43.1,30.10,WNW,296,2.0,2.0,44,0.00,,,0.00,Wunderground v.1.15,2013-05-26 12:01:00,
2013-05-26 13:11:00,65.4,42.9,30.10,WSW,242,2.0,2.0,44,0.00,,,0.00,Wunderground v.1.15,2013-05-26 12:11:00,
2013-05-26 13:21:00,65.2,42.1,30.10,WNW,284,1.0,1.0,43,0.00,,,0.00,Wunderground v.1.15,2013-05-26 12:21:00,
2013-05-26 13:26:00,64.9,43.6,30.10,WNW,289,1.0,1.0,46,0.00,,,0.00,Wunderground v.1.15,2013-05-26 12:26:00,
2013-05-26 13:36:00,66.0,43.5,30.09,SW,227,2.0,3.0,44,0.00,,,0.00,Wunderground v.1.15,2013-05-26 12:36:00,
2013-05-26 13:46:00,66.1,43.5,30.09,NW,313,1.0,2.0,44,0.00,,,0.00,Wunderground v.1.15,2013-05-26 12:46:00,
2013-05-26 13:51:00,66.5,43.9,30.08,WSW,258,1.0,2.0,44,0.00,,,0.00,Wunderground v.1.15,2013-05-26 12:51:00,
2013-05-26 14:01:00,66.3,41.9,30.08,NW,315,2.0,2.0,41,0.00,,,0.00,Wunderground v.1.15,2013-05-26 13:01:00,
2013-05-26 14:11:00,66.1,41.7,30.08,WSW,253,2.0,2.0,41,0.00,,,0.00,Wunderground v.1.15,2013-05-26 13:11:00,
2013-05-26 14:16:00,66.3,42.5,30.08,West,271,2.0,4.0,42,0.00,,,0.00,Wunderground v.1.15,2013-05-26 13:16:00,
2013-05-26 14:26:00,66.3,42.5,30.08,South,177,2.0,2.0,42,0.00,,,0.00,Wunderground v.1.15,2013-05-26 13:26:00,
2013-05-26 14:36:00,66.2,42.4,30.08,West,262,1.0,2.0,42,0.00,,,0.00,Wunderground v.1.15,2013-05-26 13:36:00,
2013-05-26 14:46:00,67.3,42.8,30.07,WNW,284,3.0,3.0,41,0.00,,,0.00,Wunderground v.1.15,2013-05-26 13:46:00,
2013-05-26 14:51:00,66.8,41.0,30.07,WNW,292,2.0,2.0,39,0.00,,,0.00,Wunderground v.1.15,2013-05-26 13:51:00,
2013-05-26 15:01:00,66.8,44.2,30.07,WSW,246,1.0,1.0,44,0.00,,,0.00,Wunderground v.1.15,2013-05-26 14:01:00,
2013-05-26 15:11:00,66.8,43.6,30.07,NNW,331,3.0,3.0,43,0.00,,,0.00,Wunderground v.1.15,2013-05-26 14:11:00,
2013-05-26 15:16:00,66.4,42.0,30.07,WNW,302,2.0,3.0,41,0.00,,,0.00,Wunderground v.1.15,2013-05-26 14:16:00,
2013-05-26 15:26:00,67.1,42.6,30.06,NW,306,1.0,1.0,41,0.00,,,0.00,Wunderground v.1.15,2013-05-26 14:26:00,
2013-05-26 15:31:00,67.8,41.3,30.06,West,267,2.0,2.0,38,0.00,,,0.00,Wunderground v.1.15,2013-05-26 14:31:00,
2013-05-26 15:41:00,68.4,40.4,30.06,SW,236,3.0,3.0,36,0.00,,,0.00,Wunderground v.1.15,2013-05-26 14:41:00,
2013-05-26 15:46:00,68.7,41.4,30.06,WSW,250,3.0,4.0,37,0.00,,,0.00,Wunderground v.1.15,2013-05-26 14:46:00,
2013-05-26 15:56:00,69.3,40.5,30.05,West,268,4.0,4.0,35,0.00,,,0.00,Wunderground v.1.15,2013-05-26 14:56:00,
2013-05-26 16:06:00,68.5,40.5,30.05,WNW,282,3.0,3.0,36,0.00,,,0.00,Wunderground v.1.15,2013-05-26 15:06:00,
2013-05-26 16:11:00,68.3,41.0,30.05,NW,306,2.0,2.0,37,0.00,,,0.00,Wunderground v.1.15,2013-05-26 15:11:00,
2013-05-26 16:21:00,67.8,40.6,30.05,WNW,294,1.0,4.0,37,0.00,,,0.00,Wunderground v.1.15,2013-05-26 15:21:00,
2013-05-26 16:26:00,67.8,41.3,30.05,WNW,292,1.0,4.0,38,0.00,,,0.00,Wunderground v.1.15,2013-05-26 15:26:00,
2013-05-26 16:36:00,67.9,41.3,30.04,WNW,292,2.0,2.0,38,0.00,,,0.00,Wunderground v.1.15,2013-05-26 15:36:00,
2013-05-26 16:46:00,67.1,42.6,30.04,NW,308,2.0,2.0,41,0.00,,,0.00,Wunderground v.1.15,2013-05-26 15:46:00,
2013-05-26 16:51:00,66.8,42.3,30.04,WNW,292,2.0,2.0,41,0.00,,,0.00,Wunderground v.1.15,2013-05-26 15:51:00,
2013-05-26 17:01:00,67.3,41.5,30.04,WSW,250,2.0,2.0,39,0.00,,,0.00,Wunderground v.1.15,2013-05-26 16:01:00,
2013-05-26 17:11:00,66.8,41.7,30.04,SW,217,3.0,3.0,40,0.00,,,0.00,Wunderground v.1.15,2013-05-26 16:11:00,
2013-05-26 17:16:00,66.1,40.4,30.03,West,273,1.0,3.0,39,0.00,,,0.00,Wunderground v.1.15,2013-05-26 16:16:00,
2013-05-26 17:21:00,66.0,42.2,30.03,East,84,1.0,1.0,42,0.00,,,0.00,Wunderground v.1.15,2013-05-26 16:21:00,
2013-05-26 17:31:00,66.0,41.6,30.03,West,263,2.0,3.0,41,0.00,,,0.00,Wunderground v.1.15,2013-05-26 16:31:00,
2013-05-26 17:36:00,65.7,42.0,30.03,WNW,294,2.0,3.0,42,0.00,,,0.00,Wunderground v.1.15,2013-05-26 16:36:00,
2013-05-26 17:46:00,65.9,41.5,30.02,West,280,2.0,2.0,41,0.00,,,0.00,Wunderground v.1.15,2013-05-26 16:46:00,
2013-05-26 17:56:00,66.5,42.1,30.02,WNW,297,2.0,7.0,41,0.00,,,0.00,Wunderground v.1.15,2013-05-26 16:56:00,
2013-05-26 18:06:00,66.3,41.2,30.02,WSW,256,3.0,4.0,40,0.00,,,0.00,Wunderground v.1.15,2013-05-26 17:06:00,
2013-05-26 18:16:00,66.2,41.8,30.01,WNW,296,2.0,3.0,41,0.00,,,0.00,Wunderground v.1.15,2013-05-26 17:16:00,
2013-05-26 18:26:00,66.3,41.9,30.01,South,188,2.0,7.0,41,0.00,,,0.00,Wunderground v.1.15,2013-05-26 17:26:00,
2013-05-26 18:36:00,65.6,41.3,30.01,SSW,204,1.0,2.0,41,0.00,,,0.00,Wunderground v.1.15,2013-05-26 17:36:00,
2013-05-26 18:46:00,65.3,41.0,30.01,SW,236,2.0,2.0,41,0.00,,,0.00,Wunderground v.1.15,2013-05-26 17:46:00,
2013-05-26 18:56:00,64.4,41.4,30.00,WSW,242,1.0,2.0,43,0.00,,,0.00,Wunderground v.1.15,2013-05-26 17:56:00,
2013-05-26 19:06:00,64.0,44.4,30.00,WNW,290,1.0,2.0,49,0.00,,,0.00,Wunderground v.1.15,2013-05-26 18:06:00,
2013-05-26 19:16:00,63.6,41.9,30.00,NW,321,2.0,4.0,45,0.00,,,0.00,Wunderground v.1.15,2013-05-26 18:16:00,
2013-05-26 19:26:00,63.1,42.5,30.00,NW,323,2.0,2.0,47,0.00,,,0.00,Wunderground v.1.15,2013-05-26 18:26:00,
2013-05-26 19:36:00,62.6,42.1,30.00,WSW,243,1.0,1.0,47,0.00,,,0.00,Wunderground v.1.15,2013-05-26 18:36:00,
2013-05-26 19:46:00,62.2,42.8,30.00,WNW,290,2.0,2.0,49,0.00,,,0.00,Wunderground v.1.15,2013-05-26 18:46:00,
2013-05-26 19:56:00,61.7,42.3,30.00,WSW,252,2.0,2.0,49,0.00,,,0.00,Wunderground v.1.15,2013-05-26 18:56:00,
2013-05-26 20:06:00,61.3,43.5,30.00,SW,231,1.0,2.0,52,0.00,,,0.00,Wunderground v.1.15,2013-05-26 19:06:00,
2013-05-26 20:11:00,60.9,43.1,30.00,SW,225,2.0,3.0,52,0.00,,,0.00,Wunderground v.1.15,2013-05-26 19:11:00,
2013-05-26 20:21:00,60.2,43.5,29.99,SW,214,2.0,2.0,54,0.00,,,0.00,Wunderground v.1.15,2013-05-26 19:21:00,
2013-05-26 20:26:00,59.9,43.2,29.99,South,190,1.0,2.0,54,0.00,,,0.00,Wunderground v.1.15,2013-05-26 19:26:00,
2013-05-26 20:31:00,59.4,43.2,29.99,South,171,1.0,4.0,55,0.00,,,0.00,Wunderground v.1.15,2013-05-26 19:31:00,
2013-05-26 20:41:00,58.8,42.7,29.99,SSW,202,1.0,1.0,55,0.00,,,0.00,Wunderground v.1.15,2013-05-26 19:41:00,
2013-05-26 20:51:00,58.0,41.9,30.00,SSE,161,1.0,1.0,55,0.00,,,0.00,Wunderground v.1.15,2013-05-26 19:51:00,
2013-05-26 21:01:00,57.5,42.4,30.00,SSW,201,1.0,1.0,57,0.00,,,0.00,Wunderground v.1.15,2013-05-26 20:01:00,
2013-05-26 21:06:00,57.1,42.0,30.00,SSW,202,1.0,3.0,57,0.00,,,0.00,Wunderground v.1.15,2013-05-26 20:06:00,
2013-05-26 21:16:00,56.6,42.0,30.00,West,259,1.0,2.0,58,0.00,,,0.00,Wunderground v.1.15,2013-05-26 20:16:00,
2013-05-26 21:26:00,56.0,41.9,30.00,WSW,250,2.0,2.0,59,0.00,,,0.00,Wunderground v.1.15,2013-05-26 20:26:00,
2013-05-26 21:36:00,55.5,41.8,30.00,West,259,3.0,5.0,60,0.00,,,0.00,Wunderground v.1.15,2013-05-26 20:36:00,
2013-05-26 21:46:00,55.2,41.5,30.00,West,261,2.0,3.0,60,0.00,,,0.00,Wunderground v.1.15,2013-05-26 20:46:00,
2013-05-26 21:56:00,54.9,40.8,30.00,WNW,297,2.0,4.0,59,0.00,,,0.00,Wunderground v.1.15,2013-05-26 20:56:00,
2013-05-26 22:01:00,54.8,40.7,30.00,West,269,2.0,4.0,59,0.00,,,0.00,Wunderground v.1.15,2013-05-26 21:01:00,
2013-05-26 22:11:00,54.4,40.8,30.00,West,269,2.0,2.0,60,0.00,,,0.00,Wunderground v.1.15,2013-05-26 21:11:00,
2013-05-26 22:21:00,54.0,40.8,30.00,WSW,242,2.0,2.0,61,0.00,,,0.00,Wunderground v.1.15,2013-05-26 21:21:00,
2013-05-26 22:31:00,53.5,40.4,29.99,WSW,238,2.0,2.0,61,0.00,,,0.00,Wunderground v.1.15,2013-05-26 21:31:00,
2013-05-26 22:41:00,53.0,40.3,29.99,SW,236,1.0,1.0,62,0.00,,,0.00,Wunderground v.1.15,2013-05-26 21:41:00,
2013-05-26 22:51:00,52.6,39.9,30.00,SSW,201,0.0,0.0,62,0.00,,,0.00,Wunderground v.1.15,2013-05-26 21:51:00,
2013-05-26 23:01:00,52.2,40.0,29.99,West,260,1.0,1.0,63,0.00,,,0.00,Wunderground v.1.15,2013-05-26 22:01:00,
2013-05-26 23:11:00,51.7,39.9,29.99,WSW,246,0.0,0.0,64,0.00,,,0.00,Wunderground v.1.15,2013-05-26 22:11:00,
2013-05-26 23:21:00,51.3,39.9,29.99,WSW,246,0.0,0.0,65,0.00,,,0.00,Wunderground v.1.15,2013-05-26 22:21:00,
2013-05-26 23:31:00,50.8,39.5,29.99,WSW,252,1.0,1.0,65,0.00,,,0.00,Wunderground v.1.15,2013-05-26 22:31:00,
2013-05-26 23:41:00,50.4,39.1,29.99,WSW,246,0.0,0.0,65,0.00,,,0.00,Wunderground v.1.15,2013-05-26 22:41:00,
2013-05-26 23:46:00,50.2,38.9,29.99,West,279,0.0,2.0,65,0.00,,,0.00,Wunderground v.1.15,2013-05-26 22:46:00,
2013-05-26 23:51:00,49.9,39.0,29.99,WSW,237,1.0,1.0,66,0.00,,,0.00,Wunderground v.1.15,2013-05-26 22:51:00,
2013-05-26 23:56:00,49.8,38.9,29.99,WSW,237,1.0,1.0,66,0.00,,,0.00,Wunderground v.1.15,2013-05-26 22:56:00,